sensor_id;sensor_type;location;lat;lon;timestamp;temperature;humidity
15596;DHT22;7898;48.658;9.068;2022-10-16T00:01:32;13.90;99.90
15596;DHT22;7898;48.658;9.068;2022-10-16T00:04:00;13.80;99.90
15596;DHT22;7898;48.658;9.068;2022-10-16T00:06:28;13.70;99.90
15596;DHT22;7898;48.658;9.068;2022-10-16T00:08:57;13.70;99.90
15596;DHT22;7898;48.658;9.068;2022-10-16T00:11:26;13.70;99.90
15596;DHT22;7898;48.658;9.068;2022-10-16T00:13:57;13.60;99.90
15596;DHT22;7898;48.658;9.068;2022-10-16T00:16:24;13.60;99.90
15596;DHT22;7898;48.658;9.068;2022-10-16T00:18:51;13.50;99.90
15596;DHT22;7898;48.658;9.068;2022-10-16T00:21:21;13.50;99.90
15596;DHT22;7898;48.658;9.068;2022-10-16T00:23:50;13.50;99.90
15596;DHT22;7898;48.658;9.068;2022-10-16T00:26:19;13.40;99.90
15596;DHT22;7898;48.658;9.068;2022-10-16T00:28:46;13.40;99.90
15596;DHT22;7898;48.658;9.068;2022-10-16T00:31:14;13.40;99.90
15596;DHT22;7898;48.658;9.068;2022-10-16T00:33:41;13.50;99.90
15596;DHT22;7898;48.658;9.068;2022-10-16T00:36:11;13.50;99.90
15596;DHT22;7898;48.658;9.068;2022-10-16T00:38:39;13.40;99.90
15596;DHT22;7898;48.658;9.068;2022-10-16T00:41:07;13.40;99.90
15596;DHT22;7898;48.658;9.068;2022-10-16T00:43:39;13.30;99.90
15596;DHT22;7898;48.658;9.068;2022-10-16T00:46:13;13.30;99.90
15596;DHT22;7898;48.658;9.068;2022-10-16T00:48:43;13.30;99.90
15596;DHT22;7898;48.658;9.068;2022-10-16T00:51:12;13.20;99.90
15596;DHT22;7898;48.658;9.068;2022-10-16T00:53:39;13.20;99.90
15596;DHT22;7898;48.658;9.068;2022-10-16T00:56:06;13.20;99.90
15596;DHT22;7898;48.658;9.068;2022-10-16T00:58:33;13.10;99.90
15596;DHT22;7898;48.658;9.068;2022-10-16T01:01:04;13.10;99.90
15596;DHT22;7898;48.658;9.068;2022-10-16T01:03:32;13.10;99.90
15596;DHT22;7898;48.658;9.068;2022-10-16T01:06:15;13.00;99.90
15596;DHT22;7898;48.658;9.068;2022-10-16T01:11:48;13.10;99.90
15596;DHT22;7898;48.658;9.068;2022-10-16T01:14:23;13.20;99.90
15596;DHT22;7898;48.658;9.068;2022-10-16T01:16:57;13.10;99.90
15596;DHT22;7898;48.658;9.068;2022-10-16T01:19:38;13.10;99.90
15596;DHT22;7898;48.658;9.068;2022-10-16T01:22:09;13.00;99.90
15596;DHT22;7898;48.658;9.068;2022-10-16T01:24:39;13.00;99.90
15596;DHT22;7898;48.658;9.068;2022-10-16T01:27:12;13.10;99.90
15596;DHT22;7898;48.658;9.068;2022-10-16T01:29:48;13.10;99.90
15596;DHT22;7898;48.658;9.068;2022-10-16T01:32:18;13.10;99.90
15596;DHT22;7898;48.658;9.068;2022-10-16T01:34:52;13.10;99.90
15596;DHT22;7898;48.658;9.068;2022-10-16T01:37:27;13.00;99.90
15596;DHT22;7898;48.658;9.068;2022-10-16T01:39:58;13.00;99.90
15596;DHT22;7898;48.658;9.068;2022-10-16T01:42:33;13.00;99.90
15596;DHT22;7898;48.658;9.068;2022-10-16T01:45:02;13.00;99.90
15596;DHT22;7898;48.658;9.068;2022-10-16T01:47:34;13.00;99.90
15596;DHT22;7898;48.658;9.068;2022-10-16T01:50:02;13.00;99.90
15596;DHT22;7898;48.658;9.068;2022-10-16T01:52:32;13.10;99.90
15596;DHT22;7898;48.658;9.068;2022-10-16T01:55:02;13.10;99.90
15596;DHT22;7898;48.658;9.068;2022-10-16T01:57:33;13.10;99.90
15596;DHT22;7898;48.658;9.068;2022-10-16T02:00:05;13.10;99.90
15596;DHT22;7898;48.658;9.068;2022-10-16T02:02:33;13.10;99.90
15596;DHT22;7898;48.658;9.068;2022-10-16T02:05:06;13.10;99.90
15596;DHT22;7898;48.658;9.068;2022-10-16T02:07:36;13.10;99.90
15596;DHT22;7898;48.658;9.068;2022-10-16T02:10:03;13.10;99.90
15596;DHT22;7898;48.658;9.068;2022-10-16T02:12:34;12.70;99.90
15596;DHT22;7898;48.658;9.068;2022-10-16T02:15:02;13.10;99.90
15596;DHT22;7898;48.658;9.068;2022-10-16T02:17:29;13.10;99.90
15596;DHT22;7898;48.658;9.068;2022-10-16T02:19:57;13.00;99.90
15596;DHT22;7898;48.658;9.068;2022-10-16T02:22:28;13.10;99.90
15596;DHT22;7898;48.658;9.068;2022-10-16T02:24:58;13.10;99.90
15596;DHT22;7898;48.658;9.068;2022-10-16T02:27:29;13.20;99.90
15596;DHT22;7898;48.658;9.068;2022-10-16T02:30:03;13.20;99.90
15596;DHT22;7898;48.658;9.068;2022-10-16T02:32:39;13.20;99.90
15596;DHT22;7898;48.658;9.068;2022-10-16T02:35:08;13.20;99.90
15596;DHT22;7898;48.658;9.068;2022-10-16T02:37:36;13.30;99.90
15596;DHT22;7898;48.658;9.068;2022-10-16T02:40:06;13.20;99.90
15596;DHT22;7898;48.658;9.068;2022-10-16T02:42:34;13.20;99.90
15596;DHT22;7898;48.658;9.068;2022-10-16T02:45:03;13.20;99.90
15596;DHT22;7898;48.658;9.068;2022-10-16T02:47:30;13.20;99.90
15596;DHT22;7898;48.658;9.068;2022-10-16T02:49:57;13.20;99.90
15596;DHT22;7898;48.658;9.068;2022-10-16T02:52:24;13.20;99.90
15596;DHT22;7898;48.658;9.068;2022-10-16T02:54:52;13.20;99.90
15596;DHT22;7898;48.658;9.068;2022-10-16T02:57:18;13.20;99.90
15596;DHT22;7898;48.658;9.068;2022-10-16T02:59:45;13.10;99.90
15596;DHT22;7898;48.658;9.068;2022-10-16T03:02:14;13.10;99.90
15596;DHT22;7898;48.658;9.068;2022-10-16T03:04:41;13.10;99.90
15596;DHT22;7898;48.658;9.068;2022-10-16T03:07:07;13.10;99.90
15596;DHT22;7898;48.658;9.068;2022-10-16T03:09:37;13.10;99.90
15596;DHT22;7898;48.658;9.068;2022-10-16T03:12:04;13.10;99.90
15596;DHT22;7898;48.658;9.068;2022-10-16T03:14:31;13.00;99.90
15596;DHT22;7898;48.658;9.068;2022-10-16T03:16:58;13.00;99.90
15596;DHT22;7898;48.658;9.068;2022-10-16T03:19:27;13.10;99.90
15596;DHT22;7898;48.658;9.068;2022-10-16T03:21:54;13.10;99.90
15596;DHT22;7898;48.658;9.068;2022-10-16T03:24:21;13.10;99.90
15596;DHT22;7898;48.658;9.068;2022-10-16T03:26:48;13.60;99.90
15596;DHT22;7898;48.658;9.068;2022-10-16T03:29:15;13.00;99.90
15596;DHT22;7898;48.658;9.068;2022-10-16T03:31:42;13.00;99.90
15596;DHT22;7898;48.658;9.068;2022-10-16T03:34:09;12.90;99.90
15596;DHT22;7898;48.658;9.068;2022-10-16T03:36:37;12.90;99.90
15596;DHT22;7898;48.658;9.068;2022-10-16T03:39:04;12.90;99.90
15596;DHT22;7898;48.658;9.068;2022-10-16T03:41:31;12.80;99.90
15596;DHT22;7898;48.658;9.068;2022-10-16T03:43:58;12.80;99.90
15596;DHT22;7898;48.658;9.068;2022-10-16T03:46:25;12.50;99.90
15596;DHT22;7898;48.658;9.068;2022-10-16T03:48:52;12.80;99.90
15596;DHT22;7898;48.658;9.068;2022-10-16T03:51:19;12.80;99.90
15596;DHT22;7898;48.658;9.068;2022-10-16T03:53:47;12.80;99.90
15596;DHT22;7898;48.658;9.068;2022-10-16T03:56:14;12.80;99.90
15596;DHT22;7898;48.658;9.068;2022-10-16T03:58:41;12.80;99.90
15596;DHT22;7898;48.658;9.068;2022-10-16T04:01:08;12.80;99.90
15596;DHT22;7898;48.658;9.068;2022-10-16T04:03:35;12.90;99.90
15596;DHT22;7898;48.658;9.068;2022-10-16T04:06:02;12.90;99.90
15596;DHT22;7898;48.658;9.068;2022-10-16T04:08:29;12.90;99.90
15596;DHT22;7898;48.658;9.068;2022-10-16T04:11:01;13.00;99.90
15596;DHT22;7898;48.658;9.068;2022-10-16T04:13:28;13.00;99.90
15596;DHT22;7898;48.658;9.068;2022-10-16T04:15:55;12.90;99.90
15596;DHT22;7898;48.658;9.068;2022-10-16T04:18:22;12.90;99.90
15596;DHT22;7898;48.658;9.068;2022-10-16T04:20:49;12.80;99.90
15596;DHT22;7898;48.658;9.068;2022-10-16T04:23:15;12.90;99.90
15596;DHT22;7898;48.658;9.068;2022-10-16T04:25:42;12.80;99.90
15596;DHT22;7898;48.658;9.068;2022-10-16T04:28:11;12.80;99.90
15596;DHT22;7898;48.658;9.068;2022-10-16T04:30:38;12.90;99.90
15596;DHT22;7898;48.658;9.068;2022-10-16T04:33:08;12.90;99.90
15596;DHT22;7898;48.658;9.068;2022-10-16T04:35:35;12.90;99.90
15596;DHT22;7898;48.658;9.068;2022-10-16T04:38:02;12.80;99.90
15596;DHT22;7898;48.658;9.068;2022-10-16T04:40:29;12.80;99.90
15596;DHT22;7898;48.658;9.068;2022-10-16T04:42:58;12.80;99.90
15596;DHT22;7898;48.658;9.068;2022-10-16T04:45:26;12.80;99.90
15596;DHT22;7898;48.658;9.068;2022-10-16T04:47:57;12.80;99.90
15596;DHT22;7898;48.658;9.068;2022-10-16T04:50:24;12.80;99.90
15596;DHT22;7898;48.658;9.068;2022-10-16T04:52:52;12.80;99.90
15596;DHT22;7898;48.658;9.068;2022-10-16T04:55:20;12.80;99.90
15596;DHT22;7898;48.658;9.068;2022-10-16T04:57:47;12.80;99.90
15596;DHT22;7898;48.658;9.068;2022-10-16T05:00:14;12.80;99.90
15596;DHT22;7898;48.658;9.068;2022-10-16T05:02:42;12.80;99.90
15596;DHT22;7898;48.658;9.068;2022-10-16T05:05:09;12.80;99.90
15596;DHT22;7898;48.658;9.068;2022-10-16T05:07:37;12.80;99.90
15596;DHT22;7898;48.658;9.068;2022-10-16T05:10:05;12.80;99.90
15596;DHT22;7898;48.658;9.068;2022-10-16T05:12:32;12.80;99.90
15596;DHT22;7898;48.658;9.068;2022-10-16T05:14:59;12.90;99.90
15596;DHT22;7898;48.658;9.068;2022-10-16T05:17:26;12.80;99.90
15596;DHT22;7898;48.658;9.068;2022-10-16T05:19:56;12.80;99.90
15596;DHT22;7898;48.658;9.068;2022-10-16T05:22:23;12.80;99.90
15596;DHT22;7898;48.658;9.068;2022-10-16T05:24:50;12.80;99.90
15596;DHT22;7898;48.658;9.068;2022-10-16T05:27:19;12.80;99.90
15596;DHT22;7898;48.658;9.068;2022-10-16T05:29:46;12.80;99.90
15596;DHT22;7898;48.658;9.068;2022-10-16T05:32:14;12.80;99.90
15596;DHT22;7898;48.658;9.068;2022-10-16T05:34:41;12.70;99.90
15596;DHT22;7898;48.658;9.068;2022-10-16T05:37:13;12.60;99.90
15596;DHT22;7898;48.658;9.068;2022-10-16T05:39:40;12.70;99.90
15596;DHT22;7898;48.658;9.068;2022-10-16T05:42:07;12.60;99.90
15596;DHT22;7898;48.658;9.068;2022-10-16T05:44:34;12.40;99.90
15596;DHT22;7898;48.658;9.068;2022-10-16T05:47:01;12.50;99.90
15596;DHT22;7898;48.658;9.068;2022-10-16T05:49:28;12.50;99.90
15596;DHT22;7898;48.658;9.068;2022-10-16T05:51:54;12.40;99.90
15596;DHT22;7898;48.658;9.068;2022-10-16T05:54:23;12.40;99.90
15596;DHT22;7898;48.658;9.068;2022-10-16T05:56:50;12.70;99.90
15596;DHT22;7898;48.658;9.068;2022-10-16T05:59:17;12.40;99.90
15596;DHT22;7898;48.658;9.068;2022-10-16T06:01:44;12.60;99.90
15596;DHT22;7898;48.658;9.068;2022-10-16T06:04:10;12.60;99.90
15596;DHT22;7898;48.658;9.068;2022-10-16T06:06:40;12.70;99.90
15596;DHT22;7898;48.658;9.068;2022-10-16T06:09:08;12.70;99.90
15596;DHT22;7898;48.658;9.068;2022-10-16T06:11:37;12.70;99.90
15596;DHT22;7898;48.658;9.068;2022-10-16T06:14:04;12.90;99.90
15596;DHT22;7898;48.658;9.068;2022-10-16T06:16:33;12.90;99.90
15596;DHT22;7898;48.658;9.068;2022-10-16T06:19:01;13.20;99.90
15596;DHT22;7898;48.658;9.068;2022-10-16T06:21:35;13.70;99.90
15596;DHT22;7898;48.658;9.068;2022-10-16T06:24:02;14.20;99.90
15596;DHT22;7898;48.658;9.068;2022-10-16T06:26:33;14.40;99.90
15596;DHT22;7898;48.658;9.068;2022-10-16T06:29:03;14.60;99.90
15596;DHT22;7898;48.658;9.068;2022-10-16T06:31:30;14.50;99.90
15596;DHT22;7898;48.658;9.068;2022-10-16T06:33:59;14.50;99.90
15596;DHT22;7898;48.658;9.068;2022-10-16T06:36:27;14.50;99.90
15596;DHT22;7898;48.658;9.068;2022-10-16T06:38:54;14.50;99.90
15596;DHT22;7898;48.658;9.068;2022-10-16T06:41:22;14.40;99.90
15596;DHT22;7898;48.658;9.068;2022-10-16T06:43:49;14.30;99.90
15596;DHT22;7898;48.658;9.068;2022-10-16T06:46:20;14.30;99.90
15596;DHT22;7898;48.658;9.068;2022-10-16T06:48:51;14.80;99.90
15596;DHT22;7898;48.658;9.068;2022-10-16T06:51:20;15.40;99.90
15596;DHT22;7898;48.658;9.068;2022-10-16T06:53:49;16.20;99.90
15596;DHT22;7898;48.658;9.068;2022-10-16T06:56:17;16.30;99.90
15596;DHT22;7898;48.658;9.068;2022-10-16T06:58:48;16.30;99.90
15596;DHT22;7898;48.658;9.068;2022-10-16T07:01:16;16.10;99.90
15596;DHT22;7898;48.658;9.068;2022-10-16T07:03:45;15.90;99.90
15596;DHT22;7898;48.658;9.068;2022-10-16T07:06:14;15.70;99.90
15596;DHT22;7898;48.658;9.068;2022-10-16T07:08:43;15.50;99.90
15596;DHT22;7898;48.658;9.068;2022-10-16T07:11:14;15.40;99.90
15596;DHT22;7898;48.658;9.068;2022-10-16T07:13:42;15.30;99.90
15596;DHT22;7898;48.658;9.068;2022-10-16T07:16:11;15.10;99.90
15596;DHT22;7898;48.658;9.068;2022-10-16T07:18:39;15.10;99.90
15596;DHT22;7898;48.658;9.068;2022-10-16T07:21:10;15.10;99.90
15596;DHT22;7898;48.658;9.068;2022-10-16T07:23:37;15.10;99.90
15596;DHT22;7898;48.658;9.068;2022-10-16T07:26:05;15.00;99.90
15596;DHT22;7898;48.658;9.068;2022-10-16T07:28:33;15.10;99.90
15596;DHT22;7898;48.658;9.068;2022-10-16T07:31:01;15.00;99.90
15596;DHT22;7898;48.658;9.068;2022-10-16T07:38:33;15.20;99.90
15596;DHT22;7898;48.658;9.068;2022-10-16T07:41:01;15.30;99.90
15596;DHT22;7898;48.658;9.068;2022-10-16T07:43:29;15.20;99.90
15596;DHT22;7898;48.658;9.068;2022-10-16T07:45:57;15.10;99.90
15596;DHT22;7898;48.658;9.068;2022-10-16T07:48:26;15.10;99.90
15596;DHT22;7898;48.658;9.068;2022-10-16T07:50:57;15.00;99.90
15596;DHT22;7898;48.658;9.068;2022-10-16T07:53:24;15.00;99.90
15596;DHT22;7898;48.658;9.068;2022-10-16T07:55:54;15.00;99.90
15596;DHT22;7898;48.658;9.068;2022-10-16T07:58:23;15.00;99.90
15596;DHT22;7898;48.658;9.068;2022-10-16T08:00:50;15.00;99.90
15596;DHT22;7898;48.658;9.068;2022-10-16T08:03:17;15.00;99.90
15596;DHT22;7898;48.658;9.068;2022-10-16T08:05:44;15.00;99.90
15596;DHT22;7898;48.658;9.068;2022-10-16T08:08:17;15.10;99.90
15596;DHT22;7898;48.658;9.068;2022-10-16T08:10:44;15.20;99.90
15596;DHT22;7898;48.658;9.068;2022-10-16T08:13:16;15.20;99.90
15596;DHT22;7898;48.658;9.068;2022-10-16T08:15:43;15.30;99.90
15596;DHT22;7898;48.658;9.068;2022-10-16T08:18:11;15.50;99.90
15596;DHT22;7898;48.658;9.068;2022-10-16T08:20:42;15.60;99.90
15596;DHT22;7898;48.658;9.068;2022-10-16T08:23:09;16.60;99.90
15596;DHT22;7898;48.658;9.068;2022-10-16T08:25:37;16.00;99.90
15596;DHT22;7898;48.658;9.068;2022-10-16T08:28:05;16.20;99.90
15596;DHT22;7898;48.658;9.068;2022-10-16T08:30:34;16.50;99.90
15596;DHT22;7898;48.658;9.068;2022-10-16T08:33:01;16.60;99.90
15596;DHT22;7898;48.658;9.068;2022-10-16T08:35:28;16.70;99.90
15596;DHT22;7898;48.658;9.068;2022-10-16T08:37:56;16.20;99.90
15596;DHT22;7898;48.658;9.068;2022-10-16T08:40:25;16.90;99.90
15596;DHT22;7898;48.658;9.068;2022-10-16T08:46:06;17.10;99.90
15596;DHT22;7898;48.658;9.068;2022-10-16T08:48:40;17.10;99.90
15596;DHT22;7898;48.658;9.068;2022-10-16T08:51:14;17.10;99.90
15596;DHT22;7898;48.658;9.068;2022-10-16T08:53:49;17.10;99.90
15596;DHT22;7898;48.658;9.068;2022-10-16T08:56:17;17.20;99.90
15596;DHT22;7898;48.658;9.068;2022-10-16T08:58:45;17.20;99.90
15596;DHT22;7898;48.658;9.068;2022-10-16T09:01:16;17.30;99.90
15596;DHT22;7898;48.658;9.068;2022-10-16T09:03:55;17.50;99.90
15596;DHT22;7898;48.658;9.068;2022-10-16T09:06:35;17.60;99.90
15596;DHT22;7898;48.658;9.068;2022-10-16T09:12:04;17.90;99.90
15596;DHT22;7898;48.658;9.068;2022-10-16T09:14:45;18.00;99.90
15596;DHT22;7898;48.658;9.068;2022-10-16T09:17:36;18.10;99.90
15596;DHT22;7898;48.658;9.068;2022-10-16T09:20:18;18.20;99.90
15596;DHT22;7898;48.658;9.068;2022-10-16T09:22:46;18.40;99.90
15596;DHT22;7898;48.658;9.068;2022-10-16T09:25:15;18.50;99.90
15596;DHT22;7898;48.658;9.068;2022-10-16T09:27:44;18.70;99.90
15596;DHT22;7898;48.658;9.068;2022-10-16T09:30:17;19.10;99.90
15596;DHT22;7898;48.658;9.068;2022-10-16T09:32:48;19.70;99.90
15596;DHT22;7898;48.658;9.068;2022-10-16T09:35:19;20.30;99.90
15596;DHT22;7898;48.658;9.068;2022-10-16T09:37:51;20.90;99.90
15596;DHT22;7898;48.658;9.068;2022-10-16T09:40:29;21.40;99.90
15596;DHT22;7898;48.658;9.068;2022-10-16T09:43:02;21.60;99.90
15596;DHT22;7898;48.658;9.068;2022-10-16T09:45:30;21.90;99.90
15596;DHT22;7898;48.658;9.068;2022-10-16T09:48:01;22.20;99.90
15596;DHT22;7898;48.658;9.068;2022-10-16T09:50:39;22.40;99.90
15596;DHT22;7898;48.658;9.068;2022-10-16T09:53:11;22.70;99.90
15596;DHT22;7898;48.658;9.068;2022-10-16T09:55:48;22.80;99.90
15596;DHT22;7898;48.658;9.068;2022-10-16T09:58:16;22.90;99.90
15596;DHT22;7898;48.658;9.068;2022-10-16T10:00:49;23.00;99.90
15596;DHT22;7898;48.658;9.068;2022-10-16T10:03:33;22.90;99.90
15596;DHT22;7898;48.658;9.068;2022-10-16T10:06:14;22.60;99.90
15596;DHT22;7898;48.658;9.068;2022-10-16T10:08:53;22.30;99.90
15596;DHT22;7898;48.658;9.068;2022-10-16T10:11:39;22.00;99.90
15596;DHT22;7898;48.658;9.068;2022-10-16T10:14:13;22.20;99.90
15596;DHT22;7898;48.658;9.068;2022-10-16T10:16:42;22.20;99.90
15596;DHT22;7898;48.658;9.068;2022-10-16T10:19:14;22.50;99.90
15596;DHT22;7898;48.658;9.068;2022-10-16T10:21:41;22.80;99.90
15596;DHT22;7898;48.658;9.068;2022-10-16T10:24:11;23.10;99.90
15596;DHT22;7898;48.658;9.068;2022-10-16T10:26:39;23.50;99.90
15596;DHT22;7898;48.658;9.068;2022-10-16T10:29:15;22.70;99.90
15596;DHT22;7898;48.658;9.068;2022-10-16T10:31:51;23.20;99.90
15596;DHT22;7898;48.658;9.068;2022-10-16T10:34:35;23.00;99.90
15596;DHT22;7898;48.658;9.068;2022-10-16T10:37:21;22.90;99.90
15596;DHT22;7898;48.658;9.068;2022-10-16T10:39:56;22.70;99.90
15596;DHT22;7898;48.658;9.068;2022-10-16T10:42:31;22.20;99.90
15596;DHT22;7898;48.658;9.068;2022-10-16T10:45:16;22.20;99.90
15596;DHT22;7898;48.658;9.068;2022-10-16T10:47:51;22.80;99.90
15596;DHT22;7898;48.658;9.068;2022-10-16T10:50:25;22.90;99.90
15596;DHT22;7898;48.658;9.068;2022-10-16T10:52:59;23.20;99.90
15596;DHT22;7898;48.658;9.068;2022-10-16T10:55:37;23.20;99.90
15596;DHT22;7898;48.658;9.068;2022-10-16T11:01:09;23.20;99.90
15596;DHT22;7898;48.658;9.068;2022-10-16T11:03:59;23.30;99.90
15596;DHT22;7898;48.658;9.068;2022-10-16T11:06:33;23.80;99.90
15596;DHT22;7898;48.658;9.068;2022-10-16T11:09:09;23.90;99.90
15596;DHT22;7898;48.658;9.068;2022-10-16T11:11:40;24.10;99.90
15596;DHT22;7898;48.658;9.068;2022-10-16T11:14:14;24.10;99.90
15596;DHT22;7898;48.658;9.068;2022-10-16T11:16:48;24.10;99.90
15596;DHT22;7898;48.658;9.068;2022-10-16T11:19:26;24.10;99.90
15596;DHT22;7898;48.658;9.068;2022-10-16T11:22:02;24.10;99.90
15596;DHT22;7898;48.658;9.068;2022-10-16T11:24:39;24.10;99.90
15596;DHT22;7898;48.658;9.068;2022-10-16T11:27:10;24.40;99.90
15596;DHT22;7898;48.658;9.068;2022-10-16T11:29:47;24.70;99.90
15596;DHT22;7898;48.658;9.068;2022-10-16T11:32:22;24.80;99.90
15596;DHT22;7898;48.658;9.068;2022-10-16T11:34:52;24.70;99.90
15596;DHT22;7898;48.658;9.068;2022-10-16T11:37:25;24.70;99.90
15596;DHT22;7898;48.658;9.068;2022-10-16T11:39:58;24.60;99.90
15596;DHT22;7898;48.658;9.068;2022-10-16T11:42:30;24.50;99.90
15596;DHT22;7898;48.658;9.068;2022-10-16T11:45:03;24.50;99.90
15596;DHT22;7898;48.658;9.068;2022-10-16T11:47:39;24.50;99.90
15596;DHT22;7898;48.658;9.068;2022-10-16T11:50:17;24.60;99.90
15596;DHT22;7898;48.658;9.068;2022-10-16T11:52:53;24.50;99.90
15596;DHT22;7898;48.658;9.068;2022-10-16T11:55:26;24.60;99.90
15596;DHT22;7898;48.658;9.068;2022-10-16T11:57:59;24.70;99.90
15596;DHT22;7898;48.658;9.068;2022-10-16T12:00:33;24.50;99.90
15596;DHT22;7898;48.658;9.068;2022-10-16T12:03:12;24.30;99.90
15596;DHT22;7898;48.658;9.068;2022-10-16T12:05:55;24.30;99.90
15596;DHT22;7898;48.658;9.068;2022-10-16T12:08:25;24.30;99.90
15596;DHT22;7898;48.658;9.068;2022-10-16T12:10:53;24.20;99.90
15596;DHT22;7898;48.658;9.068;2022-10-16T12:13:32;24.40;99.90
15596;DHT22;7898;48.658;9.068;2022-10-16T12:16:07;24.60;99.90
15596;DHT22;7898;48.658;9.068;2022-10-16T12:18:46;24.70;99.90
15596;DHT22;7898;48.658;9.068;2022-10-16T12:21:16;24.90;99.90
15596;DHT22;7898;48.658;9.068;2022-10-16T12:23:50;25.20;99.90
15596;DHT22;7898;48.658;9.068;2022-10-16T12:26:25;25.20;99.90
15596;DHT22;7898;48.658;9.068;2022-10-16T12:28:53;25.00;99.90
15596;DHT22;7898;48.658;9.068;2022-10-16T12:31:21;24.90;99.90
15596;DHT22;7898;48.658;9.068;2022-10-16T12:33:57;25.00;99.90
15596;DHT22;7898;48.658;9.068;2022-10-16T12:36:30;25.00;99.90
15596;DHT22;7898;48.658;9.068;2022-10-16T12:38:59;25.10;99.90
15596;DHT22;7898;48.658;9.068;2022-10-16T12:41:28;25.30;99.90
15596;DHT22;7898;48.658;9.068;2022-10-16T12:43:56;25.40;99.90
15596;DHT22;7898;48.658;9.068;2022-10-16T12:46:35;25.40;99.90
15596;DHT22;7898;48.658;9.068;2022-10-16T12:49:21;25.00;99.90
15596;DHT22;7898;48.658;9.068;2022-10-16T12:51:50;24.80;99.90
15596;DHT22;7898;48.658;9.068;2022-10-16T12:54:20;24.50;99.90
15596;DHT22;7898;48.658;9.068;2022-10-16T12:57:00;24.40;99.90
15596;DHT22;7898;48.658;9.068;2022-10-16T12:59:38;24.40;99.90
15596;DHT22;7898;48.658;9.068;2022-10-16T13:02:26;24.40;99.90
15596;DHT22;7898;48.658;9.068;2022-10-16T13:05:16;24.70;99.90
15596;DHT22;7898;48.658;9.068;2022-10-16T13:07:59;25.20;99.90
15596;DHT22;7898;48.658;9.068;2022-10-16T13:10:36;25.00;99.90
15596;DHT22;7898;48.658;9.068;2022-10-16T13:16:07;26.10;99.90
15596;DHT22;7898;48.658;9.068;2022-10-16T13:18:46;26.30;99.90
15596;DHT22;7898;48.658;9.068;2022-10-16T13:21:25;26.40;99.90
15596;DHT22;7898;48.658;9.068;2022-10-16T13:23:59;26.20;99.90
15596;DHT22;7898;48.658;9.068;2022-10-16T13:26:37;26.10;99.90
15596;DHT22;7898;48.658;9.068;2022-10-16T13:29:05;25.90;99.90
15596;DHT22;7898;48.658;9.068;2022-10-16T13:31:33;25.60;99.90
15596;DHT22;7898;48.658;9.068;2022-10-16T13:34:00;25.60;99.90
15596;DHT22;7898;48.658;9.068;2022-10-16T13:36:29;25.70;99.90
15596;DHT22;7898;48.658;9.068;2022-10-16T13:39:12;25.70;99.90
15596;DHT22;7898;48.658;9.068;2022-10-16T13:41:41;25.50;99.90
15596;DHT22;7898;48.658;9.068;2022-10-16T13:44:14;25.30;99.90
15596;DHT22;7898;48.658;9.068;2022-10-16T13:46:42;25.00;99.90
15596;DHT22;7898;48.658;9.068;2022-10-16T13:49:13;24.60;99.90
15596;DHT22;7898;48.658;9.068;2022-10-16T13:51:41;24.30;99.90
15596;DHT22;7898;48.658;9.068;2022-10-16T13:54:10;24.10;99.90
15596;DHT22;7898;48.658;9.068;2022-10-16T13:56:38;23.90;99.90
15596;DHT22;7898;48.658;9.068;2022-10-16T13:59:22;23.80;99.90
15596;DHT22;7898;48.658;9.068;2022-10-16T14:01:51;23.70;99.90
15596;DHT22;7898;48.658;9.068;2022-10-16T14:04:19;23.50;99.90
15596;DHT22;7898;48.658;9.068;2022-10-16T14:06:49;23.40;99.90
15596;DHT22;7898;48.658;9.068;2022-10-16T14:09:22;23.30;99.90
15596;DHT22;7898;48.658;9.068;2022-10-16T14:11:51;23.30;99.90
15596;DHT22;7898;48.658;9.068;2022-10-16T14:14:21;23.30;99.90
15596;DHT22;7898;48.658;9.068;2022-10-16T14:16:48;23.30;99.90
15596;DHT22;7898;48.658;9.068;2022-10-16T14:19:20;23.20;99.90
15596;DHT22;7898;48.658;9.068;2022-10-16T14:21:49;23.20;99.90
15596;DHT22;7898;48.658;9.068;2022-10-16T14:24:25;23.20;99.90
15596;DHT22;7898;48.658;9.068;2022-10-16T14:26:53;23.30;99.90
15596;DHT22;7898;48.658;9.068;2022-10-16T14:29:26;23.20;99.90
15596;DHT22;7898;48.658;9.068;2022-10-16T14:31:58;23.20;99.90
15596;DHT22;7898;48.658;9.068;2022-10-16T14:34:27;23.30;99.90
15596;DHT22;7898;48.658;9.068;2022-10-16T14:36:56;23.40;99.90
15596;DHT22;7898;48.658;9.068;2022-10-16T14:39:24;23.70;99.90
15596;DHT22;7898;48.658;9.068;2022-10-16T14:41:54;24.10;99.90
15596;DHT22;7898;48.658;9.068;2022-10-16T14:44:28;24.60;99.90
15596;DHT22;7898;48.658;9.068;2022-10-16T14:46:55;25.00;99.90
15596;DHT22;7898;48.658;9.068;2022-10-16T14:49:23;25.40;99.90
15596;DHT22;7898;48.658;9.068;2022-10-16T14:51:50;25.30;99.90
15596;DHT22;7898;48.658;9.068;2022-10-16T14:54:18;25.10;99.90
15596;DHT22;7898;48.658;9.068;2022-10-16T14:56:48;25.00;99.90
15596;DHT22;7898;48.658;9.068;2022-10-16T14:59:18;25.00;99.90
15596;DHT22;7898;48.658;9.068;2022-10-16T15:01:47;25.20;99.90
15596;DHT22;7898;48.658;9.068;2022-10-16T15:04:15;25.20;99.90
15596;DHT22;7898;48.658;9.068;2022-10-16T15:06:43;25.20;99.90
15596;DHT22;7898;48.658;9.068;2022-10-16T15:09:10;24.80;99.90
15596;DHT22;7898;48.658;9.068;2022-10-16T15:11:37;24.50;99.90
15596;DHT22;7898;48.658;9.068;2022-10-16T15:14:05;24.10;99.90
15596;DHT22;7898;48.658;9.068;2022-10-16T15:16:32;23.80;99.90
15596;DHT22;7898;48.658;9.068;2022-10-16T15:19:01;23.40;99.90
15596;DHT22;7898;48.658;9.068;2022-10-16T15:21:30;23.20;99.90
15596;DHT22;7898;48.658;9.068;2022-10-16T15:23:57;22.90;99.90
15596;DHT22;7898;48.658;9.068;2022-10-16T15:26:25;22.80;99.90
15596;DHT22;7898;48.658;9.068;2022-10-16T15:28:53;22.60;99.90
15596;DHT22;7898;48.658;9.068;2022-10-16T15:31:20;22.50;99.90
15596;DHT22;7898;48.658;9.068;2022-10-16T15:33:50;22.50;99.90
15596;DHT22;7898;48.658;9.068;2022-10-16T15:36:26;22.50;99.90
15596;DHT22;7898;48.658;9.068;2022-10-16T15:38:53;22.30;99.90
15596;DHT22;7898;48.658;9.068;2022-10-16T15:41:20;22.10;99.90
15596;DHT22;7898;48.658;9.068;2022-10-16T15:43:48;21.90;99.90
15596;DHT22;7898;48.658;9.068;2022-10-16T15:46:18;21.70;99.90
15596;DHT22;7898;48.658;9.068;2022-10-16T15:48:45;21.50;99.90
15596;DHT22;7898;48.658;9.068;2022-10-16T15:51:12;21.40;99.90
15596;DHT22;7898;48.658;9.068;2022-10-16T15:53:41;21.20;99.90
15596;DHT22;7898;48.658;9.068;2022-10-16T15:56:09;20.90;99.90
15596;DHT22;7898;48.658;9.068;2022-10-16T15:58:36;20.70;99.90
15596;DHT22;7898;48.658;9.068;2022-10-16T16:01:04;20.60;99.90
15596;DHT22;7898;48.658;9.068;2022-10-16T16:03:32;20.50;99.90
15596;DHT22;7898;48.658;9.068;2022-10-16T16:06:04;20.30;99.90
15596;DHT22;7898;48.658;9.068;2022-10-16T16:08:33;20.20;99.90
15596;DHT22;7898;48.658;9.068;2022-10-16T16:11:03;20.10;99.90
15596;DHT22;7898;48.658;9.068;2022-10-16T16:13:31;20.00;99.90
15596;DHT22;7898;48.658;9.068;2022-10-16T16:15:58;19.90;99.90
15596;DHT22;7898;48.658;9.068;2022-10-16T16:18:25;19.80;99.90
15596;DHT22;7898;48.658;9.068;2022-10-16T16:20:54;19.70;99.90
15596;DHT22;7898;48.658;9.068;2022-10-16T16:23:21;19.60;99.90
15596;DHT22;7898;48.658;9.068;2022-10-16T16:26:07;19.70;99.90